Airfield :
LOGIN :

Register | Disclaimer

   EN    FR    IT 

 










Legend :    VFR   Marginal VFR   IFR   Intensive IFR   Very Intensive IFR
Visi :
Ceiling :
>= 8 km
>= 3000ft
5 to 8 km
1000 to 3000 ft
1500m to 5 km
500 to 1000 ft
800 to 1500m
200 to 500 ft
< 800m
< 200 ft
Symbols :   Thunderstorms  Fog  Heavy snow  Heavy precipitations  Wind > 20 kt
SIGMETs :     Misc.  Thunderstorms  Icing  Turbulence  Mountain Waves  Volcanic Ashes







- Airport Elevation : 755 ft
- IATA code : DRS


EDDC - Dresden Klotzsche

CURRENT METAR :
  • 200850Z 23007KT 9999 FEW030 BKN038 01/M02 Q1008 NOSIG

EXPIRED METARs :
  • 200820Z 23007KT 9999 BKN033 01/M02 Q1008 NOSIG
  • 200750Z 23006KT 9999 BKN030 BKN230 01/M02 Q1008 NOSIG
  • 200720Z 22007KT 9999 BKN038 BKN250 00/M02 Q1008 NOSIG
  • 200650Z 23006KT 9999 FEW030 SCT040 BKN250 01/M01 Q1008 NOSIG
  • 200620Z 22007KT 9999 SCT020 BKN056 00/M02 Q1008 NOSIG

TAF TAF EDDC
Valid from the 20 at 06:00 until the 21 at 06:00 UTC


200500Z 2006/2106 22007KT 9999 BKN020
PROB40
TEMPO 2006/2015 2000 SHSN BKN008CB
BECMG 2015/2018 16005KT
BECMG 2021/2023 10004KT BKN010
PROB40
TEMPO 2023/2106 2800 -SN BKN005
No reported NOTAMs for that airfield.



MET'MAP, your aeronautical weather chart ! - Copyright ORBIFLY December 2007 - Disclaimer

ORBIFLY MET'MAP TEAM :

Programming & Development : Alexandra Zaïnal
Concept & Development : Baudouin d'Aumeries
Co-Development & Prog : Marc-Olivier Méhu
Technical & hardware support : Manuel Goepfert

Contact : metmap@orbifly.com




SOURCES & CREDITS :

   NOAA